createdAt,value
2023-01-13T00:01:25.851Z,99970.00
2023-01-13T00:03:53.235Z,99977.00
2023-01-13T00:06:26.093Z,99968.00
2023-01-13T00:08:53.767Z,99967.00
2023-01-13T00:11:21.900Z,99967.00
2023-01-13T00:13:48.891Z,99964.00
2023-01-13T00:16:18.388Z,99978.00
2023-01-13T00:18:46.053Z,99966.00
2023-01-13T00:21:23.654Z,99982.00
2023-01-13T00:23:52.628Z,99971.00
2023-01-13T00:26:23.755Z,99973.00
2023-01-13T00:28:50.814Z,99970.00
2023-01-13T00:31:20.966Z,99960.00
2023-01-13T00:33:51.916Z,99976.00
2023-01-13T00:36:20.855Z,99973.00
2023-01-13T00:38:48.680Z,99976.00
2023-01-13T00:41:19.405Z,99967.00
2023-01-13T00:43:46.892Z,99958.00
2023-01-13T00:46:17.470Z,99963.00
2023-01-13T00:48:45.194Z,99967.00
2023-01-13T00:51:19.118Z,99963.00
2023-01-13T00:53:51.329Z,99965.00
2023-01-13T00:56:39.289Z,99958.00
2023-01-13T00:59:10.935Z,99957.00
2023-01-13T01:01:38.409Z,99957.00
2023-01-13T01:04:05.798Z,99957.00
2023-01-13T01:06:32.862Z,99961.00
2023-01-13T01:08:59.693Z,99968.00
2023-01-13T01:11:31.879Z,99968.00
2023-01-13T01:14:02.197Z,99965.00
2023-01-13T01:16:31.535Z,99969.00
2023-01-13T01:18:59.703Z,99968.00
2023-01-13T01:21:28.741Z,99971.00
2023-01-13T01:23:56.064Z,99977.00
2023-01-13T01:26:26.275Z,99975.00
2023-01-13T01:28:53.646Z,99968.00
2023-01-13T01:31:33.303Z,99966.00
2023-01-13T01:34:01.688Z,99951.00
2023-01-13T01:36:34.904Z,99960.00
2023-01-13T01:39:01.763Z,99968.00
2023-01-13T01:41:33.578Z,99965.00
2023-01-13T01:44:08.371Z,99951.00
2023-01-13T01:46:40.439Z,99968.00
2023-01-13T01:49:26.814Z,99949.00
2023-01-13T01:52:26.502Z,99947.00
2023-01-13T01:55:06.645Z,99957.00
2023-01-13T01:57:46.423Z,99950.00
2023-01-13T02:00:14.210Z,99952.00
2023-01-13T02:02:46.005Z,99944.00
2023-01-13T02:05:13.698Z,99942.00
2023-01-13T02:07:44.383Z,99950.00
2023-01-13T02:10:16.731Z,99958.00
2023-01-13T02:12:45.708Z,99945.00
2023-01-13T02:15:17.836Z,99937.00
2023-01-13T02:18:47.285Z,99937.00
2023-01-13T02:21:41.991Z,99929.00
2023-01-13T02:25:00.995Z,99926.00
2023-01-13T02:27:55.541Z,99940.00
2023-01-13T02:31:00.062Z,99927.00
2023-01-13T02:34:10.288Z,99930.00
2023-01-13T02:37:08.389Z,99919.00
2023-01-13T02:39:51.772Z,99924.00
2023-01-13T02:42:53.326Z,99926.00
2023-01-13T02:45:51.196Z,99930.00
2023-01-13T02:48:22.601Z,99925.00
2023-01-13T02:51:02.290Z,99919.00
2023-01-13T02:53:40.927Z,99923.00
2023-01-13T02:56:10.245Z,99925.00
2023-01-13T02:58:40.429Z,99920.00
2023-01-13T03:01:07.968Z,99917.00
2023-01-13T03:03:36.452Z,99924.00
2023-01-13T03:06:36.842Z,99924.00
2023-01-13T03:09:19.155Z,99924.00
2023-01-13T03:12:07.688Z,99922.00
2023-01-13T03:14:53.879Z,99920.00
2023-01-13T03:17:49.524Z,99910.00
2023-01-13T03:20:25.666Z,99896.00
2023-01-13T03:23:15.352Z,99901.00
2023-01-13T03:26:02.760Z,99902.00
2023-01-13T03:28:41.262Z,99903.00
2023-01-13T03:31:16.061Z,99891.00
2023-01-13T03:33:56.667Z,99905.00
2023-01-13T03:36:27.942Z,99904.00
2023-01-13T03:39:07.612Z,99893.00
2023-01-13T03:41:43.523Z,99892.00
2023-01-13T03:44:22.399Z,99900.00
2023-01-13T03:47:15.692Z,99904.00
2023-01-13T03:49:55.716Z,99906.00
2023-01-13T03:52:36.484Z,99902.00
2023-01-13T03:55:34.373Z,99893.00
2023-01-13T03:58:19.302Z,99912.00
2023-01-13T04:01:30.783Z,99900.00
2023-01-13T04:04:21.506Z,99910.00
2023-01-13T04:07:11.878Z,99888.00
2023-01-13T04:09:56.557Z,99893.00
2023-01-13T04:13:00.652Z,99891.00
2023-01-13T04:15:39.194Z,99895.00
2023-01-13T04:18:16.173Z,99897.00
2023-01-13T04:20:45.818Z,99899.00
2023-01-13T04:23:13.590Z,99895.00
2023-01-13T04:25:45.088Z,99885.00
2023-01-13T04:28:12.981Z,99886.00
2023-01-13T04:30:40.801Z,99897.00
2023-01-13T04:33:07.741Z,99895.00
2023-01-13T04:35:35.537Z,99900.00
2023-01-13T04:38:10.835Z,99900.00
2023-01-13T04:40:38.392Z,99907.00
2023-01-13T04:43:05.379Z,99898.00
2023-01-13T04:45:32.610Z,99906.00
2023-01-13T04:47:59.596Z,99899.00
2023-01-13T04:50:26.385Z,99904.00
2023-01-13T04:52:54.808Z,99902.00
2023-01-13T04:55:24.193Z,99903.00
2023-01-13T04:57:51.696Z,99904.00
2023-01-13T05:00:22.249Z,99904.00
2023-01-13T05:02:52.235Z,99913.00
2023-01-13T05:05:19.479Z,99904.00
2023-01-13T05:07:46.525Z,99922.00
2023-01-13T05:10:13.706Z,99913.00
2023-01-13T05:12:59.792Z,99925.00
2023-01-13T05:15:45.347Z,99937.00
2023-01-13T05:18:13.034Z,99928.00
2023-01-13T05:20:39.800Z,99925.00
2023-01-13T05:23:25.512Z,99933.00
2023-01-13T05:25:52.352Z,99928.00
2023-01-13T05:28:19.172Z,99924.00
2023-01-13T05:30:49.239Z,99920.00
2023-01-13T05:33:18.911Z,99917.00
2023-01-13T05:35:47.653Z,99923.00
2023-01-13T05:38:15.511Z,99916.00
2023-01-13T05:41:01.069Z,99930.00
2023-01-13T05:43:28.133Z,99922.00
2023-01-13T05:46:05.583Z,99924.00
2023-01-13T05:48:36.354Z,99922.00
2023-01-13T05:51:05.578Z,99928.00
2023-01-13T05:53:33.155Z,99923.00
2023-01-13T05:56:00.583Z,99939.00
2023-01-13T05:58:28.263Z,99944.00
2023-01-13T06:01:03.169Z,99943.00
2023-01-13T06:03:30.320Z,99951.00
2023-01-13T06:06:01.482Z,99953.00
2023-01-13T06:08:29.077Z,99956.00
2023-01-13T06:10:56.476Z,99953.00
2023-01-13T06:13:25.338Z,99948.00
2023-01-13T06:15:56.776Z,99949.00
2023-01-13T06:18:23.938Z,99943.00
2023-01-13T06:20:50.713Z,99951.00
2023-01-13T06:23:17.497Z,99959.00
2023-01-13T06:26:13.711Z,99962.00
2023-01-13T06:28:40.723Z,99968.00
2023-01-13T06:31:10.157Z,99967.00
2023-01-13T06:33:42.806Z,99963.00
2023-01-13T06:36:22.624Z,99959.00
2023-01-13T06:38:55.707Z,99958.00
2023-01-13T06:41:43.413Z,99947.00
2023-01-13T06:44:10.429Z,99953.00
2023-01-13T06:46:37.575Z,99945.00
2023-01-13T06:49:04.371Z,99958.00
2023-01-13T06:51:31.096Z,99942.00
2023-01-13T06:53:57.851Z,99937.00
2023-01-13T06:56:24.759Z,99918.00
2023-01-13T06:58:51.725Z,99925.00
2023-01-13T07:01:18.531Z,99950.00
2023-01-13T07:03:45.451Z,99961.00
2023-01-13T07:06:12.321Z,99952.00
2023-01-13T07:08:39.095Z,99946.00
2023-01-13T07:11:06.114Z,99942.00
2023-01-13T07:13:53.834Z,99940.00
2023-01-13T07:16:20.761Z,99948.00
2023-01-13T07:18:47.560Z,99943.00
2023-01-13T07:21:18.727Z,99943.00
2023-01-13T07:23:46.528Z,99944.00
2023-01-13T07:26:15.031Z,99922.00
2023-01-13T07:28:42.627Z,99899.00
2023-01-13T07:31:21.420Z,99907.00
2023-01-13T07:33:48.370Z,99925.00
2023-01-13T07:36:15.766Z,99943.00
2023-01-13T07:38:44.433Z,99930.00
2023-01-13T07:41:33.754Z,99928.00
2023-01-13T07:44:02.750Z,99962.00
2023-01-13T07:46:29.472Z,99937.00
2023-01-13T07:48:56.262Z,99937.00
2023-01-13T07:51:23.045Z,99957.00
2023-01-13T07:53:49.972Z,99959.00
2023-01-13T07:56:16.934Z,99966.00
2023-01-13T07:58:44.896Z,99967.00
2023-01-13T08:01:14.015Z,99962.00
2023-01-13T08:03:41.304Z,99964.00
2023-01-13T08:06:09.568Z,99955.00
2023-01-13T08:08:36.828Z,99962.00
2023-01-13T08:11:06.607Z,99977.00
2023-01-13T08:13:33.606Z,99990.00
2023-01-13T08:16:11.211Z,99993.00
2023-01-13T08:18:38.588Z,99994.00
2023-01-13T08:21:12.894Z,99997.00
2023-01-13T08:23:44.346Z,99998.00
2023-01-13T08:26:16.386Z,100005.00
2023-01-13T08:28:43.797Z,100007.00
2023-01-13T08:31:15.751Z,100004.00
2023-01-13T08:33:42.688Z,100012.00
2023-01-13T08:36:12.277Z,100002.00
2023-01-13T08:38:40.780Z,99991.00
2023-01-13T08:41:14.371Z,99993.00
2023-01-13T08:43:41.816Z,99998.00
2023-01-13T08:46:08.683Z,99990.00
2023-01-13T08:48:35.797Z,99991.00
2023-01-13T08:51:05.928Z,99980.00
2023-01-13T08:53:32.702Z,100004.00
2023-01-13T08:55:59.525Z,100020.00
2023-01-13T08:58:26.340Z,100044.00
2023-01-13T09:00:53.165Z,100041.00
2023-01-13T09:03:19.990Z,100028.00
2023-01-13T09:05:46.780Z,100038.00
2023-01-13T09:08:13.865Z,100052.00
2023-01-13T09:10:40.713Z,100015.00
2023-01-13T09:13:13.090Z,100000.00
2023-01-13T09:15:42.644Z,99963.00
2023-01-13T09:18:10.173Z,99892.00
2023-01-13T09:20:36.969Z,99880.00
2023-01-13T09:23:04.830Z,99980.00
2023-01-13T09:25:32.085Z,99997.00
2023-01-13T09:27:58.984Z,100024.00
2023-01-13T09:30:25.804Z,100032.00
2023-01-13T09:33:12.550Z,100025.00
2023-01-13T09:35:39.273Z,100017.00
2023-01-13T09:38:06.872Z,100017.00
2023-01-13T09:40:33.934Z,100000.00
2023-01-13T09:43:50.229Z,99996.00
2023-01-13T09:46:44.771Z,99982.00
2023-01-13T09:49:20.667Z,99989.00
2023-01-13T09:52:20.906Z,99980.00
2023-01-13T09:55:30.524Z,100001.00
2023-01-13T09:57:57.771Z,100018.00
2023-01-13T10:00:34.890Z,100012.00
2023-01-13T10:03:22.451Z,100010.00
2023-01-13T10:06:16.860Z,100017.00
2023-01-13T10:08:47.283Z,100002.00
2023-01-13T10:11:43.563Z,100022.00
2023-01-13T10:14:24.465Z,100027.00
2023-01-13T10:17:13.411Z,100024.00
2023-01-13T10:20:02.896Z,100028.00
2023-01-13T10:23:07.017Z,100028.00
2023-01-13T10:25:52.386Z,100041.00
2023-01-13T10:28:19.620Z,100023.00
2023-01-13T10:30:47.786Z,100025.00
2023-01-13T10:33:26.271Z,100021.00
2023-01-13T10:36:02.579Z,100019.00
2023-01-13T10:38:43.151Z,100027.00
2023-01-13T10:41:15.607Z,100029.00
2023-01-13T10:43:51.483Z,100027.00
2023-01-13T10:46:20.052Z,100029.00
2023-01-13T10:49:00.312Z,100018.00
2023-01-13T10:51:38.783Z,100017.00
2023-01-13T10:54:11.741Z,100018.00
2023-01-13T10:56:44.866Z,100028.00
2023-01-13T10:59:26.737Z,100024.00
2023-01-13T11:02:25.193Z,100015.00
2023-01-13T11:04:55.873Z,100012.00
2023-01-13T11:07:39.011Z,100021.00
2023-01-13T11:10:27.500Z,100013.00
2023-01-13T11:13:03.704Z,100021.00
2023-01-13T11:16:18.795Z,100019.00
2023-01-13T11:19:12.041Z,100019.00
2023-01-13T11:22:25.255Z,100018.00
2023-01-13T11:25:01.823Z,100025.00
2023-01-13T11:28:14.180Z,100025.00
2023-01-13T11:31:08.469Z,100017.00
2023-01-13T11:33:38.225Z,100026.00
2023-01-13T11:36:22.855Z,100019.00
2023-01-13T11:38:57.358Z,100024.00
2023-01-13T11:42:12.453Z,100013.00
2023-01-13T11:44:45.081Z,100014.00
2023-01-13T11:47:13.843Z,100014.00
2023-01-13T11:49:40.922Z,100020.00
2023-01-13T11:52:28.426Z,100011.00
2023-01-13T11:55:22.998Z,100007.00
2023-01-13T11:58:41.931Z,100014.00
2023-01-13T12:02:00.469Z,100019.00
2023-01-13T12:04:52.697Z,100012.00
2023-01-13T12:07:46.076Z,100021.00
2023-01-13T12:10:39.860Z,100018.00
2023-01-13T12:13:29.057Z,100036.00
2023-01-13T12:16:30.355Z,100020.00
2023-01-13T12:19:25.080Z,100015.00
2023-01-13T12:22:10.847Z,100028.00
2023-01-13T12:25:04.251Z,100024.00
2023-01-13T12:27:59.316Z,100018.00
2023-01-13T12:30:42.748Z,100026.00
2023-01-13T12:33:54.837Z,100027.00
2023-01-13T12:36:50.960Z,100022.00
2023-01-13T12:39:51.560Z,100026.00
2023-01-13T12:42:51.420Z,100023.00
2023-01-13T12:45:28.775Z,100024.00
2023-01-13T12:47:58.704Z,100035.00
2023-01-13T12:50:25.368Z,100036.00
2023-01-13T12:52:54.618Z,100042.00
2023-01-13T12:55:37.057Z,100044.00
2023-01-13T12:58:06.907Z,100050.00
2023-01-13T13:00:44.610Z,100040.00
2023-01-13T13:03:12.263Z,100054.00
2023-01-13T13:05:48.840Z,100057.00
2023-01-13T13:08:59.780Z,100028.00
2023-01-13T13:11:57.967Z,100039.00
2023-01-13T13:14:40.140Z,100043.00
2023-01-13T13:17:28.578Z,100044.00
2023-01-13T13:19:57.631Z,100052.00
2023-01-13T13:22:27.289Z,100051.00
2023-01-13T13:24:57.611Z,100059.00
2023-01-13T13:27:56.995Z,100051.00
2023-01-13T13:30:35.535Z,100056.00
2023-01-13T13:33:34.888Z,100065.00
2023-01-13T13:36:50.261Z,100061.00
2023-01-13T13:39:47.296Z,100058.00
2023-01-13T13:42:42.790Z,100066.00
2023-01-13T13:45:40.295Z,100077.00
2023-01-13T13:48:30.921Z,100081.00
2023-01-13T13:51:02.582Z,100077.00
2023-01-13T13:53:42.046Z,100069.00
2023-01-13T13:56:27.210Z,100068.00
2023-01-13T13:58:54.808Z,100083.00
2023-01-13T14:01:43.727Z,100075.00
2023-01-13T14:04:22.191Z,100065.00
2023-01-13T14:06:56.698Z,100081.00
2023-01-13T14:09:25.975Z,100082.00
2023-01-13T14:12:06.723Z,100081.00
2023-01-13T14:14:33.560Z,100065.00
2023-01-13T14:17:00.524Z,100078.00
2023-01-13T14:19:36.331Z,100090.00
2023-01-13T14:22:05.180Z,100092.00
2023-01-13T14:24:32.771Z,100085.00
2023-01-13T14:27:16.251Z,100097.00
2023-01-13T14:29:43.630Z,100088.00
2023-01-13T14:32:17.706Z,100091.00
2023-01-13T14:34:45.066Z,100084.00
2023-01-13T14:37:27.810Z,100089.00
2023-01-13T14:39:55.344Z,100095.00
2023-01-13T14:42:22.219Z,100085.00
2023-01-13T14:44:51.513Z,100095.00
2023-01-13T14:47:33.631Z,100092.00
2023-01-13T14:50:21.935Z,100092.00
2023-01-13T14:52:55.623Z,100077.00
2023-01-13T14:55:38.468Z,100092.00
2023-01-13T14:58:25.114Z,100087.00
2023-01-13T15:01:26.193Z,100092.00
2023-01-13T15:03:53.020Z,100098.00
2023-01-13T15:06:26.048Z,100095.00
2023-01-13T15:08:53.027Z,100098.00
2023-01-13T15:11:27.983Z,100110.00
2023-01-13T15:14:03.672Z,100099.00
2023-01-13T15:16:33.858Z,100096.00
2023-01-13T15:19:01.633Z,100101.00
2023-01-13T15:21:28.475Z,100096.00
2023-01-13T15:23:55.260Z,100108.00
2023-01-13T15:26:25.139Z,100102.00
2023-01-13T15:28:55.552Z,100104.00
2023-01-13T15:31:23.627Z,100107.00
2023-01-13T15:33:50.812Z,100103.00
2023-01-13T15:36:31.328Z,100110.00
2023-01-13T15:39:00.989Z,100112.00
2023-01-13T15:41:47.120Z,100112.00
2023-01-13T15:44:34.295Z,100139.00
2023-01-13T15:47:06.503Z,100140.00
2023-01-13T15:49:46.403Z,100130.00
2023-01-13T15:52:25.780Z,100128.00
2023-01-13T15:54:54.275Z,100134.00
2023-01-13T15:57:34.616Z,100120.00
2023-01-13T16:00:08.083Z,100130.00
2023-01-13T16:02:34.980Z,100146.00
2023-01-13T16:05:01.885Z,100135.00
2023-01-13T16:07:28.676Z,100134.00
2023-01-13T16:09:55.753Z,100144.00
2023-01-13T16:12:22.532Z,100147.00
2023-01-13T16:14:49.280Z,100141.00
2023-01-13T16:17:20.192Z,100151.00
2023-01-13T16:19:47.282Z,100158.00
2023-01-13T16:22:16.316Z,100156.00
2023-01-13T16:24:43.288Z,100160.00
2023-01-13T16:27:16.696Z,100144.00
2023-01-13T16:29:45.859Z,100162.00
2023-01-13T16:32:13.343Z,100165.00
2023-01-13T16:34:40.615Z,100172.00
2023-01-13T16:37:27.717Z,100180.00
2023-01-13T16:39:55.155Z,100177.00
2023-01-13T16:42:22.136Z,100178.00
2023-01-13T16:44:50.606Z,100183.00
2023-01-13T16:47:18.748Z,100185.00
2023-01-13T16:49:46.060Z,100177.00
2023-01-13T16:52:12.832Z,100189.00
2023-01-13T16:54:39.639Z,100198.00
2023-01-13T16:57:07.733Z,100194.00
2023-01-13T16:59:34.531Z,100206.00
2023-01-13T17:02:02.084Z,100211.00
2023-01-13T17:04:29.073Z,100211.00
2023-01-13T17:07:05.973Z,100215.00
2023-01-13T17:09:32.755Z,100216.00
2023-01-13T17:11:59.926Z,100218.00
2023-01-13T17:14:26.761Z,100231.00
2023-01-13T17:16:58.389Z,100228.00
2023-01-13T17:19:25.699Z,100240.00
2023-01-13T17:21:52.670Z,100233.00
2023-01-13T17:24:20.032Z,100232.00
2023-01-13T17:26:49.971Z,100239.00
2023-01-13T17:29:23.498Z,100229.00
2023-01-13T17:31:51.372Z,100234.00
2023-01-13T17:34:19.747Z,100245.00
2023-01-13T17:36:46.986Z,100247.00
2023-01-13T17:39:21.520Z,100254.00
2023-01-13T17:41:48.374Z,100257.00
2023-01-13T17:44:20.847Z,100251.00
2023-01-13T17:46:48.761Z,100259.00
2023-01-13T17:49:19.092Z,100257.00
2023-01-13T17:51:50.971Z,100263.00
2023-01-13T17:54:18.904Z,100266.00
2023-01-13T17:56:45.654Z,100262.00
2023-01-13T17:59:14.695Z,100274.00
2023-01-13T18:01:42.125Z,100271.00
2023-01-13T18:04:27.533Z,100278.00
2023-01-13T18:06:56.646Z,100262.00
2023-01-13T18:09:23.605Z,100278.00
2023-01-13T18:11:50.563Z,100282.00
2023-01-13T18:14:17.578Z,100280.00
2023-01-13T18:16:44.595Z,100282.00
2023-01-13T18:19:30.037Z,100281.00
2023-01-13T18:22:15.466Z,100283.00
2023-01-13T18:25:00.977Z,100280.00
2023-01-13T18:27:33.784Z,100280.00
2023-01-13T18:30:02.825Z,100280.00
2023-01-13T18:32:33.329Z,100281.00
2023-01-13T18:35:06.416Z,100277.00
2023-01-13T18:37:41.894Z,100283.00
2023-01-13T18:40:12.547Z,100288.00
2023-01-13T18:42:51.664Z,100293.00
2023-01-13T18:45:28.862Z,100304.00
2023-01-13T18:48:00.130Z,100302.00
2023-01-13T18:50:28.379Z,100293.00
2023-01-13T18:52:55.666Z,100296.00
2023-01-13T18:55:22.744Z,100299.00
2023-01-13T18:57:50.753Z,100303.00
2023-01-13T19:00:21.618Z,100300.00
2023-01-13T19:05:34.212Z,100319.00
2023-01-13T19:08:00.999Z,100326.00
2023-01-13T19:10:31.703Z,100341.00
2023-01-13T19:12:58.560Z,100334.00
2023-01-13T19:15:26.352Z,100319.00
2023-01-13T19:17:53.080Z,100322.00
2023-01-13T19:20:20.157Z,100317.00
2023-01-13T19:22:53.825Z,100333.00
2023-01-13T19:25:20.769Z,100326.00
2023-01-13T19:27:47.497Z,100338.00
2023-01-13T19:30:14.619Z,100326.00
2023-01-13T19:32:41.380Z,100337.00
2023-01-13T19:35:08.716Z,100342.00
2023-01-13T19:37:36.865Z,100355.00
2023-01-13T19:40:09.146Z,100350.00
2023-01-13T19:42:54.729Z,100359.00
2023-01-13T19:45:27.378Z,100359.00
2023-01-13T19:47:55.894Z,100352.00
2023-01-13T19:50:23.245Z,100366.00
2023-01-13T19:52:50.048Z,100370.00
2023-01-13T19:55:16.845Z,100369.00
2023-01-13T19:57:43.579Z,100363.00
2023-01-13T20:00:12.216Z,100375.00
2023-01-13T20:02:44.704Z,100379.00
2023-01-13T20:05:12.753Z,100387.00
2023-01-13T20:07:39.639Z,100405.00
2023-01-13T20:10:07.313Z,100398.00
2023-01-13T20:12:34.074Z,100389.00
2023-01-13T20:15:00.798Z,100411.00
2023-01-13T20:17:27.559Z,100400.00
2023-01-13T20:19:54.576Z,100411.00
2023-01-13T20:22:21.330Z,100410.00
2023-01-13T20:24:51.987Z,100400.00
2023-01-13T20:27:19.110Z,100407.00
2023-01-13T20:29:45.865Z,100431.00
2023-01-13T20:32:12.644Z,100414.00
2023-01-13T20:34:39.391Z,100445.00
2023-01-13T20:37:06.194Z,100417.00
2023-01-13T20:39:33.932Z,100419.00
2023-01-13T20:42:19.214Z,100430.00
2023-01-13T20:44:46.749Z,100437.00
2023-01-13T20:47:14.484Z,100438.00
2023-01-13T20:49:41.620Z,100430.00
2023-01-13T20:52:10.964Z,100421.00
2023-01-13T20:54:40.005Z,100422.00
2023-01-13T20:57:09.856Z,100429.00
2023-01-13T20:59:38.849Z,100438.00
2023-01-13T21:02:11.522Z,100429.00
2023-01-13T21:04:38.579Z,100442.00
2023-01-13T21:07:06.236Z,100448.00
2023-01-13T21:09:33.130Z,100433.00
2023-01-13T21:12:18.706Z,100431.00
2023-01-13T21:15:04.033Z,100443.00
2023-01-13T21:17:49.373Z,100450.00
2023-01-13T21:20:16.456Z,100456.00
2023-01-13T21:22:48.442Z,100442.00
2023-01-13T21:25:17.507Z,100449.00
2023-01-13T21:27:44.426Z,100442.00
2023-01-13T21:30:14.828Z,100457.00
2023-01-13T21:32:43.422Z,100464.00
2023-01-13T21:35:11.704Z,100450.00
2023-01-13T21:37:40.489Z,100458.00
2023-01-13T21:40:10.286Z,100472.00
2023-01-13T21:42:55.572Z,100473.00
2023-01-13T21:45:41.460Z,100478.00
2023-01-13T21:48:08.419Z,100476.00
2023-01-13T21:50:37.898Z,100475.00
2023-01-13T21:53:05.361Z,100466.00
2023-01-13T21:55:32.779Z,100484.00
2023-01-13T21:58:12.820Z,100470.00
2023-01-13T22:00:44.393Z,100474.00
2023-01-13T22:03:14.262Z,100482.00
2023-01-13T22:05:41.434Z,100474.00
2023-01-13T22:08:08.552Z,100484.00
2023-01-13T22:10:35.434Z,100482.00
2023-01-13T22:13:23.285Z,100489.00
2023-01-13T22:15:50.016Z,100496.00
2023-01-13T22:18:18.278Z,100486.00
2023-01-13T22:20:45.656Z,100502.00
2023-01-13T22:23:12.512Z,100492.00
2023-01-13T22:25:39.388Z,100500.00
2023-01-13T22:28:08.561Z,100500.00
2023-01-13T22:30:35.519Z,100499.00
2023-01-13T22:33:02.259Z,100502.00
2023-01-13T22:35:29.004Z,100507.00
2023-01-13T22:37:55.814Z,100511.00
2023-01-13T22:40:22.592Z,100520.00
2023-01-13T22:42:49.354Z,100518.00
2023-01-13T22:45:16.316Z,100534.00
2023-01-13T22:47:43.136Z,100531.00
2023-01-13T22:50:12.523Z,100526.00
2023-01-13T22:52:39.781Z,100533.00
2023-01-13T22:55:07.325Z,100526.00
2023-01-13T22:57:36.324Z,100545.00
2023-01-13T23:00:14.992Z,100548.00
2023-01-13T23:02:41.863Z,100551.00
2023-01-13T23:05:08.918Z,100547.00
2023-01-13T23:07:36.129Z,100546.00
2023-01-13T23:10:04.204Z,100542.00
2023-01-13T23:12:30.980Z,100553.00
2023-01-13T23:14:57.767Z,100550.00
2023-01-13T23:17:24.492Z,100549.00
2023-01-13T23:19:51.218Z,100549.00
2023-01-13T23:22:17.996Z,100554.00
2023-01-13T23:24:45.471Z,100556.00
2023-01-13T23:27:12.235Z,100558.00
2023-01-13T23:29:39.020Z,100571.00
2023-01-13T23:32:05.972Z,100574.00
2023-01-13T23:34:32.725Z,100557.00
2023-01-13T23:36:59.494Z,100562.00
2023-01-13T23:39:26.330Z,100562.00
2023-01-13T23:41:53.058Z,100572.00
2023-01-13T23:44:19.835Z,100576.00
2023-01-13T23:46:46.717Z,100567.00
2023-01-13T23:49:13.445Z,100574.00
2023-01-13T23:51:40.292Z,100573.00
2023-01-13T23:54:07.079Z,100575.00
2023-01-13T23:56:34.923Z,100578.00
2023-01-13T23:59:01.724Z,100581.00
